METAR France - 19 Feb 2018 - 0148 UTC - RocketRoute WX - rrwx.com
LFLB 190130Z AUTO 03005KT 9999 FEW027 BKN037 OVC043 04/M01 Q1020 LFBZ 190130Z AUTO 31010KT 8000 -RA BKN008/// BKN013/// BKN019/// ///TCU 11/10 Q1021 TEMPO 1500 DZ OVC004 LFLC 190130Z AUTO 05002KT 6000 NSC M01/M02 Q1019 TEMPO 0600 BCFG BKN002 LFSB 190130Z AUTO 33004KT 4200 BR OVC004 01/M00 Q1021 TEMPO 0300 FZFG VV/// LFBL 190130Z AUTO 03003KT 0400 0350 R21/0400N R03/0550U FG VV/// 01/01 Q1019 NOSIG LFBI 190130Z AUTO 00000KT 0650 R21/0750N FG VV/// 01/01 Q1020 TEMPO 0400 FG LFBO 190130Z AUTO VRB01KT 4100 BR OVC003 07/06 Q1019 NOSIG LFRB 190130Z AUTO 33007KT 1100 1000 R25/1500D R07/P2000 BR VV/// 10/10 Q1020 TEMPO 2000 DZ LFLY 190130Z AUTO 36005KT 350V070 9999 OVC030 02/M02 Q1020 NOSIG LFRK 190130Z AUTO 16004KT 9999 OVC013 07/07 Q1019 LFMN 190130Z 33008KT 9999 BKN093 09/04 Q1015 NOSIG LFST 190130Z AUTO 02003KT 7000 OVC032 01/M01 Q1022 TEMPO 2000 BR OVC004 LFTW 190130Z AUTO 02009KT 9999 NSC 04/M01 Q1017 LFRH 190130Z AUTO 26002KT 6000 OVC012 10/09 Q1020 BECMG FEW010 SCT050 LFPB 190130Z AUTO 12003KT CAVOK 00/M01 Q1021 TEMPO 4000 BR LFQQ 190130Z AUTO 15009KT 6000 NSC 01/M01 Q1021 NOSIG LFAT 190130Z AUTO 12006KT 9999 BKN025 OVC036 05/02 Q1020 LFMT 190130Z AUTO 35007KT 9999 NSC 03/M01 Q1018 NOSIG LFBD 190130Z AUTO 12003KT 2500 -DZ BR BKN002 OVC007 09/09 Q1019 TEMPO 0500 FG LFRS 190130Z AUTO 16002KT 2700 BR OVC003 07/07 Q1019 TEMPO DZ LFKJ 190130Z AUTO 05006KT 9999 BKN064 BKN180 07/05 Q1013 TEMPO SHRA BKN014 LFPG 190130Z 13006KT 9000 NSC 01/M01 Q1021 NOSIG LFPO 190130Z 10002KT 6000 SCT009 BKN180 01/M00 Q1021 TEMPO 2500 BR LFRD 190130Z AUTO 27002KT 0650 0600 R35L/0750N FG VV/// 09/08 Q1019 TEMPO 0800 FG LFKB 190130Z AUTO 02009KT 9999 BKN030 BKN036 BKN045 09/05 Q1015 TEMPO BKN014 LFML 190130Z AUTO 17002KT 9999 NSC 02/M01 Q1017 NOSIG LFMP 190130Z AUTO 34010KT 9999 FEW027 09/05 Q1018 LFLL 190130Z 34004KT 9999 OVC029 02/M02 Q1020 NOSIG LFRN 190130Z AUTO 20002KT 2700 BR OVC002 08/07 Q1019 TEMPO VV/// LFOB 190130Z AUTO 12005KT 9000 OVC035 01/M00 Q1021 NOSIG LFPN 190130Z AUTO 12004KT 5000 BR NSC 01/00 Q1021 LFOT 190130Z AUTO 12003KT 7000 NSC 04/03 Q1020 TEMPO 2000 -RA BKN006

RocketRoute WX - rrwx.com weather for pilots